Terminal Aerodrome Forecast
Issued by NWS

Home | Current Version | Previous Version | Text Only | Print | Product List | Glossary On
Versions: 1 2 3 4 5 6 7 8 9 10 11 12 13 14 15 16 17
000
FTUS46 KLOX 300520
TAFWJF
TAF
KWJF 300520Z 3006/0106 26008KT P6SM SCT150 BKN250
     FM300900 VRB05KT P6SM BKN250
     FM302100 20008KT P6SM SCT250
     FM302300 23018G24KT P6SM SCT250
     FM010300 25012KT P6SM SCT250=

USA.gov is the U.S. government's official web portal to all federal, state and local government web resources and services.